sensor_id;sensor_type;location;lat;lon;timestamp;P1;durP1;ratioP1;P2;durP2;ratioP2
27560;SDS011;15003;47.476;11.990;2022-08-19T00:01:31;4.30;;;3.08;;
27560;SDS011;15003;47.476;11.990;2022-08-19T00:04:08;5.07;;;2.88;;
27560;SDS011;15003;47.476;11.990;2022-08-19T00:06:37;5.35;;;3.78;;
27560;SDS011;15003;47.476;11.990;2022-08-19T00:09:07;5.10;;;3.10;;
27560;SDS011;15003;47.476;11.990;2022-08-19T00:11:35;4.95;;;3.45;;
27560;SDS011;15003;47.476;11.990;2022-08-19T00:14:02;5.50;;;3.08;;
27560;SDS011;15003;47.476;11.990;2022-08-19T00:16:30;3.50;;;2.78;;
27560;SDS011;15003;47.476;11.990;2022-08-19T00:18:56;4.30;;;2.97;;
27560;SDS011;15003;47.476;11.990;2022-08-19T00:21:22;7.43;;;3.45;;
27560;SDS011;15003;47.476;11.990;2022-08-19T00:23:50;4.03;;;2.83;;
27560;SDS011;15003;47.476;11.990;2022-08-19T00:26:17;3.38;;;2.97;;
27560;SDS011;15003;47.476;11.990;2022-08-19T00:28:43;4.65;;;3.17;;
27560;SDS011;15003;47.476;11.990;2022-08-19T00:31:09;6.47;;;3.38;;
27560;SDS011;15003;47.476;11.990;2022-08-19T00:33:35;4.28;;;3.25;;
27560;SDS011;15003;47.476;11.990;2022-08-19T00:36:02;5.45;;;3.50;;
27560;SDS011;15003;47.476;11.990;2022-08-19T00:38:31;4.50;;;3.08;;
27560;SDS011;15003;47.476;11.990;2022-08-19T00:40:58;5.57;;;3.30;;
27560;SDS011;15003;47.476;11.990;2022-08-19T00:43:24;5.75;;;3.90;;
27560;SDS011;15003;47.476;11.990;2022-08-19T00:45:52;5.82;;;3.22;;
27560;SDS011;15003;47.476;11.990;2022-08-19T00:48:19;5.72;;;3.40;;
27560;SDS011;15003;47.476;11.990;2022-08-19T00:50:46;5.35;;;3.65;;
27560;SDS011;15003;47.476;11.990;2022-08-19T00:53:15;3.97;;;3.15;;
27560;SDS011;15003;47.476;11.990;2022-08-19T00:55:46;4.00;;;3.58;;
27560;SDS011;15003;47.476;11.990;2022-08-19T00:58:16;3.90;;;3.13;;
27560;SDS011;15003;47.476;11.990;2022-08-19T01:00:45;4.80;;;3.40;;
27560;SDS011;15003;47.476;11.990;2022-08-19T01:03:14;4.63;;;2.90;;
27560;SDS011;15003;47.476;11.990;2022-08-19T01:05:44;4.13;;;3.20;;
27560;SDS011;15003;47.476;11.990;2022-08-19T01:08:14;5.18;;;3.60;;
27560;SDS011;15003;47.476;11.990;2022-08-19T01:10:45;4.78;;;3.10;;
27560;SDS011;15003;47.476;11.990;2022-08-19T01:13:20;5.00;;;3.10;;
27560;SDS011;15003;47.476;11.990;2022-08-19T01:15:56;3.53;;;2.90;;
27560;SDS011;15003;47.476;11.990;2022-08-19T01:18:30;4.30;;;3.00;;
27560;SDS011;15003;47.476;11.990;2022-08-19T01:21:00;5.38;;;3.60;;
27560;SDS011;15003;47.476;11.990;2022-08-19T01:23:33;4.93;;;3.78;;
27560;SDS011;15003;47.476;11.990;2022-08-19T01:25:59;4.38;;;3.42;;
27560;SDS011;15003;47.476;11.990;2022-08-19T01:28:26;5.13;;;3.25;;
27560;SDS011;15003;47.476;11.990;2022-08-19T01:30:53;5.63;;;3.53;;
27560;SDS011;15003;47.476;11.990;2022-08-19T01:33:20;4.60;;;3.15;;
27560;SDS011;15003;47.476;11.990;2022-08-19T01:35:46;4.18;;;3.50;;
27560;SDS011;15003;47.476;11.990;2022-08-19T01:38:20;4.53;;;3.30;;
27560;SDS011;15003;47.476;11.990;2022-08-19T01:40:51;3.92;;;3.00;;
27560;SDS011;15003;47.476;11.990;2022-08-19T01:43:18;6.05;;;3.30;;
27560;SDS011;15003;47.476;11.990;2022-08-19T01:45:44;5.35;;;3.25;;
27560;SDS011;15003;47.476;11.990;2022-08-19T01:48:11;4.82;;;3.03;;
27560;SDS011;15003;47.476;11.990;2022-08-19T01:50:37;3.97;;;2.95;;
27560;SDS011;15003;47.476;11.990;2022-08-19T01:53:05;4.80;;;3.15;;
27560;SDS011;15003;47.476;11.990;2022-08-19T01:55:36;3.75;;;2.92;;
27560;SDS011;15003;47.476;11.990;2022-08-19T01:58:04;5.25;;;3.53;;
27560;SDS011;15003;47.476;11.990;2022-08-19T02:00:33;4.20;;;3.33;;
27560;SDS011;15003;47.476;11.990;2022-08-19T02:02:59;5.20;;;3.45;;
27560;SDS011;15003;47.476;11.990;2022-08-19T02:05:25;4.43;;;3.40;;
27560;SDS011;15003;47.476;11.990;2022-08-19T02:07:51;3.72;;;3.08;;
27560;SDS011;15003;47.476;11.990;2022-08-19T02:10:18;8.27;;;3.60;;
27560;SDS011;15003;47.476;11.990;2022-08-19T02:12:46;5.95;;;3.90;;
27560;SDS011;15003;47.476;11.990;2022-08-19T02:15:13;5.10;;;3.63;;
27560;SDS011;15003;47.476;11.990;2022-08-19T02:17:39;5.13;;;3.50;;
27560;SDS011;15003;47.476;11.990;2022-08-19T02:20:07;5.82;;;3.90;;
27560;SDS011;15003;47.476;11.990;2022-08-19T02:22:34;4.28;;;3.60;;
27560;SDS011;15003;47.476;11.990;2022-08-19T02:25:00;5.57;;;3.22;;
27560;SDS011;15003;47.476;11.990;2022-08-19T02:27:26;5.18;;;3.60;;
27560;SDS011;15003;47.476;11.990;2022-08-19T02:29:52;3.92;;;3.05;;
27560;SDS011;15003;47.476;11.990;2022-08-19T02:32:18;4.13;;;3.60;;
27560;SDS011;15003;47.476;11.990;2022-08-19T02:34:45;5.20;;;4.03;;
27560;SDS011;15003;47.476;11.990;2022-08-19T02:37:12;4.85;;;3.83;;
27560;SDS011;15003;47.476;11.990;2022-08-19T02:39:38;4.72;;;3.80;;
27560;SDS011;15003;47.476;11.990;2022-08-19T02:42:03;6.63;;;3.88;;
27560;SDS011;15003;47.476;11.990;2022-08-19T02:44:30;6.25;;;3.90;;
27560;SDS011;15003;47.476;11.990;2022-08-19T02:46:55;5.20;;;4.00;;
27560;SDS011;15003;47.476;11.990;2022-08-19T02:49:21;6.60;;;4.28;;
27560;SDS011;15003;47.476;11.990;2022-08-19T02:51:47;6.38;;;4.00;;
27560;SDS011;15003;47.476;11.990;2022-08-19T02:54:13;5.30;;;3.88;;
27560;SDS011;15003;47.476;11.990;2022-08-19T02:56:40;3.60;;;3.05;;
27560;SDS011;15003;47.476;11.990;2022-08-19T02:59:07;4.55;;;3.67;;
27560;SDS011;15003;47.476;11.990;2022-08-19T03:01:33;4.95;;;3.40;;
27560;SDS011;15003;47.476;11.990;2022-08-19T03:04:00;4.20;;;3.58;;
27560;SDS011;15003;47.476;11.990;2022-08-19T03:06:29;4.97;;;3.40;;
27560;SDS011;15003;47.476;11.990;2022-08-19T03:08:55;4.35;;;3.42;;
27560;SDS011;15003;47.476;11.990;2022-08-19T03:11:23;5.97;;;3.72;;
27560;SDS011;15003;47.476;11.990;2022-08-19T03:13:52;6.30;;;3.60;;
27560;SDS011;15003;47.476;11.990;2022-08-19T03:16:19;5.50;;;4.07;;
27560;SDS011;15003;47.476;11.990;2022-08-19T03:18:48;4.13;;;3.58;;
27560;SDS011;15003;47.476;11.990;2022-08-19T03:21:20;4.75;;;3.17;;
27560;SDS011;15003;47.476;11.990;2022-08-19T03:23:49;4.85;;;3.08;;
27560;SDS011;15003;47.476;11.990;2022-08-19T03:26:18;5.03;;;3.83;;
27560;SDS011;15003;47.476;11.990;2022-08-19T03:28:44;4.30;;;3.33;;
27560;SDS011;15003;47.476;11.990;2022-08-19T03:31:11;6.75;;;3.67;;
27560;SDS011;15003;47.476;11.990;2022-08-19T03:33:38;4.30;;;3.60;;
27560;SDS011;15003;47.476;11.990;2022-08-19T03:36:06;4.25;;;3.42;;
27560;SDS011;15003;47.476;11.990;2022-08-19T03:38:44;5.15;;;3.80;;
27560;SDS011;15003;47.476;11.990;2022-08-19T03:41:14;5.70;;;3.58;;
27560;SDS011;15003;47.476;11.990;2022-08-19T03:43:46;6.22;;;3.80;;
27560;SDS011;15003;47.476;11.990;2022-08-19T03:46:14;5.00;;;3.80;;
27560;SDS011;15003;47.476;11.990;2022-08-19T03:48:46;4.28;;;3.30;;
27560;SDS011;15003;47.476;11.990;2022-08-19T03:51:18;4.65;;;3.42;;
27560;SDS011;15003;47.476;11.990;2022-08-19T03:53:53;6.00;;;3.78;;
27560;SDS011;15003;47.476;11.990;2022-08-19T03:56:20;6.22;;;3.90;;
27560;SDS011;15003;47.476;11.990;2022-08-19T03:58:47;5.80;;;3.60;;
27560;SDS011;15003;47.476;11.990;2022-08-19T04:01:14;5.40;;;3.47;;
27560;SDS011;15003;47.476;11.990;2022-08-19T04:03:43;6.30;;;3.80;;
27560;SDS011;15003;47.476;11.990;2022-08-19T04:06:20;5.00;;;3.63;;
27560;SDS011;15003;47.476;11.990;2022-08-19T04:08:49;5.53;;;3.40;;
27560;SDS011;15003;47.476;11.990;2022-08-19T04:11:19;3.92;;;3.10;;
27560;SDS011;15003;47.476;11.990;2022-08-19T04:13:49;5.18;;;3.72;;
27560;SDS011;15003;47.476;11.990;2022-08-19T04:16:17;5.70;;;4.10;;
27560;SDS011;15003;47.476;11.990;2022-08-19T04:18:44;4.85;;;3.67;;
27560;SDS011;15003;47.476;11.990;2022-08-19T04:21:15;6.10;;;4.15;;
27560;SDS011;15003;47.476;11.990;2022-08-19T04:23:50;4.55;;;3.88;;
27560;SDS011;15003;47.476;11.990;2022-08-19T04:26:18;7.35;;;4.38;;
27560;SDS011;15003;47.476;11.990;2022-08-19T04:28:51;4.65;;;3.10;;
27560;SDS011;15003;47.476;11.990;2022-08-19T04:31:19;4.85;;;3.13;;
27560;SDS011;15003;47.476;11.990;2022-08-19T04:33:47;4.28;;;3.30;;
27560;SDS011;15003;47.476;11.990;2022-08-19T04:36:18;3.92;;;2.92;;
27560;SDS011;15003;47.476;11.990;2022-08-19T04:38:47;5.22;;;3.15;;
27560;SDS011;15003;47.476;11.990;2022-08-19T04:41:15;4.68;;;3.40;;
27560;SDS011;15003;47.476;11.990;2022-08-19T04:43:41;5.05;;;3.50;;
27560;SDS011;15003;47.476;11.990;2022-08-19T04:46:07;4.45;;;3.33;;
27560;SDS011;15003;47.476;11.990;2022-08-19T04:48:35;4.57;;;3.28;;
27560;SDS011;15003;47.476;11.990;2022-08-19T04:51:05;4.75;;;3.17;;
27560;SDS011;15003;47.476;11.990;2022-08-19T04:53:35;5.15;;;3.38;;
27560;SDS011;15003;47.476;11.990;2022-08-19T04:56:21;4.00;;;3.40;;
27560;SDS011;15003;47.476;11.990;2022-08-19T04:58:47;4.22;;;3.10;;
27560;SDS011;15003;47.476;11.990;2022-08-19T05:01:15;4.97;;;3.70;;
27560;SDS011;15003;47.476;11.990;2022-08-19T05:03:49;4.75;;;3.35;;
27560;SDS011;15003;47.476;11.990;2022-08-19T05:06:15;4.97;;;3.55;;
27560;SDS011;15003;47.476;11.990;2022-08-19T05:08:43;4.30;;;3.63;;
27560;SDS011;15003;47.476;11.990;2022-08-19T05:11:20;5.07;;;3.60;;
27560;SDS011;15003;47.476;11.990;2022-08-19T05:13:52;5.82;;;4.20;;
27560;SDS011;15003;47.476;11.990;2022-08-19T05:16:19;4.85;;;3.60;;
27560;SDS011;15003;47.476;11.990;2022-08-19T05:18:46;5.43;;;3.80;;
27560;SDS011;15003;47.476;11.990;2022-08-19T05:21:13;4.05;;;3.40;;
27560;SDS011;15003;47.476;11.990;2022-08-19T05:23:42;3.67;;;3.08;;
27560;SDS011;15003;47.476;11.990;2022-08-19T05:26:08;3.80;;;3.40;;
27560;SDS011;15003;47.476;11.990;2022-08-19T05:28:34;4.63;;;3.15;;
27560;SDS011;15003;47.476;11.990;2022-08-19T05:30:59;4.25;;;3.17;;
27560;SDS011;15003;47.476;11.990;2022-08-19T05:33:25;6.40;;;3.97;;
27560;SDS011;15003;47.476;11.990;2022-08-19T05:35:51;5.65;;;4.15;;
27560;SDS011;15003;47.476;11.990;2022-08-19T05:38:17;4.57;;;4.03;;
27560;SDS011;15003;47.476;11.990;2022-08-19T05:40:43;6.28;;;4.05;;
27560;SDS011;15003;47.476;11.990;2022-08-19T05:43:08;5.28;;;4.03;;
27560;SDS011;15003;47.476;11.990;2022-08-19T05:45:38;4.63;;;4.00;;
27560;SDS011;15003;47.476;11.990;2022-08-19T05:48:06;5.85;;;3.85;;
27560;SDS011;15003;47.476;11.990;2022-08-19T05:50:31;4.85;;;3.65;;
27560;SDS011;15003;47.476;11.990;2022-08-19T05:52:57;5.03;;;3.95;;
27560;SDS011;15003;47.476;11.990;2022-08-19T05:55:23;5.78;;;4.57;;
27560;SDS011;15003;47.476;11.990;2022-08-19T05:57:49;6.35;;;4.22;;
27560;SDS011;15003;47.476;11.990;2022-08-19T06:00:15;6.05;;;4.00;;
27560;SDS011;15003;47.476;11.990;2022-08-19T06:02:41;4.65;;;4.00;;
27560;SDS011;15003;47.476;11.990;2022-08-19T06:05:07;5.05;;;4.03;;
27560;SDS011;15003;47.476;11.990;2022-08-19T06:07:33;6.85;;;4.45;;
27560;SDS011;15003;47.476;11.990;2022-08-19T06:10:00;5.80;;;4.65;;
27560;SDS011;15003;47.476;11.990;2022-08-19T06:12:29;7.80;;;4.70;;
27560;SDS011;15003;47.476;11.990;2022-08-19T06:14:59;6.78;;;4.60;;
27560;SDS011;15003;47.476;11.990;2022-08-19T06:19:58;6.47;;;4.50;;
27560;SDS011;15003;47.476;11.990;2022-08-19T06:22:24;7.47;;;4.80;;
27560;SDS011;15003;47.476;11.990;2022-08-19T06:24:49;5.88;;;4.22;;
27560;SDS011;15003;47.476;11.990;2022-08-19T06:27:15;5.90;;;4.28;;
27560;SDS011;15003;47.476;11.990;2022-08-19T06:29:41;6.20;;;5.03;;
27560;SDS011;15003;47.476;11.990;2022-08-19T06:32:07;5.72;;;4.30;;
27560;SDS011;15003;47.476;11.990;2022-08-19T06:34:33;5.65;;;4.50;;
27560;SDS011;15003;47.476;11.990;2022-08-19T06:37:00;6.35;;;4.18;;
27560;SDS011;15003;47.476;11.990;2022-08-19T06:39:27;7.32;;;4.40;;
27560;SDS011;15003;47.476;11.990;2022-08-19T06:41:58;6.18;;;4.78;;
27560;SDS011;15003;47.476;11.990;2022-08-19T06:44:28;6.45;;;4.60;;
27560;SDS011;15003;47.476;11.990;2022-08-19T06:46:57;6.93;;;4.90;;
27560;SDS011;15003;47.476;11.990;2022-08-19T06:49:23;7.70;;;5.18;;
27560;SDS011;15003;47.476;11.990;2022-08-19T06:51:49;6.22;;;4.50;;
27560;SDS011;15003;47.476;11.990;2022-08-19T06:54:16;5.72;;;4.43;;
27560;SDS011;15003;47.476;11.990;2022-08-19T06:56:43;7.30;;;4.78;;
27560;SDS011;15003;47.476;11.990;2022-08-19T06:59:11;6.10;;;4.40;;
27560;SDS011;15003;47.476;11.990;2022-08-19T07:01:50;8.45;;;5.10;;
27560;SDS011;15003;47.476;11.990;2022-08-19T07:04:19;6.60;;;4.20;;
27560;SDS011;15003;47.476;11.990;2022-08-19T07:06:49;5.95;;;4.57;;
27560;SDS011;15003;47.476;11.990;2022-08-19T07:09:17;7.07;;;4.32;;
27560;SDS011;15003;47.476;11.990;2022-08-19T07:11:44;5.65;;;4.60;;
27560;SDS011;15003;47.476;11.990;2022-08-19T07:14:12;6.43;;;4.95;;
27560;SDS011;15003;47.476;11.990;2022-08-19T07:16:39;7.18;;;4.93;;
27560;SDS011;15003;47.476;11.990;2022-08-19T07:19:05;7.78;;;5.07;;
27560;SDS011;15003;47.476;11.990;2022-08-19T07:21:31;5.53;;;4.30;;
27560;SDS011;15003;47.476;11.990;2022-08-19T07:23:58;6.80;;;4.60;;
27560;SDS011;15003;47.476;11.990;2022-08-19T07:26:26;5.15;;;4.57;;
27560;SDS011;15003;47.476;11.990;2022-08-19T07:28:56;6.47;;;4.65;;
27560;SDS011;15003;47.476;11.990;2022-08-19T07:31:23;4.97;;;4.25;;
27560;SDS011;15003;47.476;11.990;2022-08-19T07:33:52;8.15;;;4.90;;
27560;SDS011;15003;47.476;11.990;2022-08-19T07:36:20;9.27;;;5.38;;
27560;SDS011;15003;47.476;11.990;2022-08-19T07:39:00;9.75;;;5.75;;
27560;SDS011;15003;47.476;11.990;2022-08-19T07:41:32;8.35;;;5.80;;
27560;SDS011;15003;47.476;11.990;2022-08-19T07:43:59;9.55;;;5.68;;
27560;SDS011;15003;47.476;11.990;2022-08-19T07:46:25;10.40;;;6.45;;
27560;SDS011;15003;47.476;11.990;2022-08-19T07:48:51;6.72;;;4.72;;
27560;SDS011;15003;47.476;11.990;2022-08-19T07:51:18;8.63;;;5.95;;
27560;SDS011;15003;47.476;11.990;2022-08-19T07:53:46;7.65;;;4.93;;
27560;SDS011;15003;47.476;11.990;2022-08-19T07:56:13;9.05;;;5.00;;
27560;SDS011;15003;47.476;11.990;2022-08-19T07:58:41;10.57;;;6.10;;
27560;SDS011;15003;47.476;11.990;2022-08-19T08:01:13;7.38;;;6.07;;
27560;SDS011;15003;47.476;11.990;2022-08-19T08:03:44;7.70;;;5.50;;
27560;SDS011;15003;47.476;11.990;2022-08-19T08:06:13;6.43;;;5.18;;
27560;SDS011;15003;47.476;11.990;2022-08-19T08:08:40;7.93;;;5.28;;
27560;SDS011;15003;47.476;11.990;2022-08-19T08:11:06;7.18;;;5.65;;
27560;SDS011;15003;47.476;11.990;2022-08-19T08:13:33;8.65;;;5.93;;
27560;SDS011;15003;47.476;11.990;2022-08-19T08:15:59;9.68;;;6.60;;
27560;SDS011;15003;47.476;11.990;2022-08-19T08:18:26;8.15;;;5.75;;
27560;SDS011;15003;47.476;11.990;2022-08-19T08:20:53;7.50;;;6.22;;
27560;SDS011;15003;47.476;11.990;2022-08-19T08:23:20;8.82;;;6.03;;
27560;SDS011;15003;47.476;11.990;2022-08-19T08:25:46;10.98;;;6.38;;
27560;SDS011;15003;47.476;11.990;2022-08-19T08:28:12;8.65;;;6.03;;
27560;SDS011;15003;47.476;11.990;2022-08-19T08:30:37;7.47;;;5.72;;
27560;SDS011;15003;47.476;11.990;2022-08-19T08:33:03;8.45;;;6.53;;
27560;SDS011;15003;47.476;11.990;2022-08-19T08:35:29;7.00;;;5.93;;
27560;SDS011;15003;47.476;11.990;2022-08-19T08:37:55;7.25;;;6.50;;
27560;SDS011;15003;47.476;11.990;2022-08-19T08:40:29;7.35;;;6.35;;
27560;SDS011;15003;47.476;11.990;2022-08-19T08:46:07;6.63;;;5.38;;
27560;SDS011;15003;47.476;11.990;2022-08-19T08:48:43;7.93;;;5.95;;
27560;SDS011;15003;47.476;11.990;2022-08-19T08:51:20;8.07;;;6.40;;
27560;SDS011;15003;47.476;11.990;2022-08-19T08:54:10;8.70;;;6.10;;
27560;SDS011;15003;47.476;11.990;2022-08-19T08:56:39;9.05;;;6.85;;
27560;SDS011;15003;47.476;11.990;2022-08-19T09:01:56;7.78;;;5.93;;
27560;SDS011;15003;47.476;11.990;2022-08-19T09:04:23;7.53;;;6.55;;
27560;SDS011;15003;47.476;11.990;2022-08-19T09:06:51;6.30;;;5.63;;
27560;SDS011;15003;47.476;11.990;2022-08-19T09:09:35;8.02;;;5.72;;
27560;SDS011;15003;47.476;11.990;2022-08-19T09:12:18;7.10;;;5.80;;
27560;SDS011;15003;47.476;11.990;2022-08-19T09:15:07;5.55;;;4.68;;
27560;SDS011;15003;47.476;11.990;2022-08-19T09:17:37;5.32;;;3.75;;
27560;SDS011;15003;47.476;11.990;2022-08-19T09:22:36;4.75;;;3.95;;
27560;SDS011;15003;47.476;11.990;2022-08-19T09:25:03;4.50;;;3.92;;
27560;SDS011;15003;47.476;11.990;2022-08-19T09:27:35;5.93;;;4.20;;
27560;SDS011;15003;47.476;11.990;2022-08-19T09:30:02;5.93;;;5.32;;
27560;SDS011;15003;47.476;11.990;2022-08-19T09:32:29;6.35;;;4.57;;
27560;SDS011;15003;47.476;11.990;2022-08-19T09:34:56;5.45;;;4.30;;
27560;SDS011;15003;47.476;11.990;2022-08-19T09:37:21;5.55;;;4.07;;
27560;SDS011;15003;47.476;11.990;2022-08-19T09:39:47;5.40;;;4.10;;
27560;SDS011;15003;47.476;11.990;2022-08-19T09:42:13;4.18;;;3.78;;
27560;SDS011;15003;47.476;11.990;2022-08-19T09:44:39;4.90;;;4.03;;
27560;SDS011;15003;47.476;11.990;2022-08-19T09:47:06;4.95;;;3.83;;
27560;SDS011;15003;47.476;11.990;2022-08-19T09:49:35;4.43;;;4.00;;
27560;SDS011;15003;47.476;11.990;2022-08-19T09:52:01;4.00;;;3.60;;
27560;SDS011;15003;47.476;11.990;2022-08-19T09:54:27;4.88;;;4.13;;
27560;SDS011;15003;47.476;11.990;2022-08-19T09:56:53;4.13;;;3.58;;
27560;SDS011;15003;47.476;11.990;2022-08-19T09:59:20;4.43;;;3.78;;
27560;SDS011;15003;47.476;11.990;2022-08-19T10:01:46;4.07;;;3.53;;
27560;SDS011;15003;47.476;11.990;2022-08-19T10:04:12;4.60;;;4.15;;
27560;SDS011;15003;47.476;11.990;2022-08-19T10:06:38;4.28;;;3.67;;
27560;SDS011;15003;47.476;11.990;2022-08-19T10:09:05;5.32;;;4.45;;
27560;SDS011;15003;47.476;11.990;2022-08-19T10:11:36;3.95;;;3.58;;
27560;SDS011;15003;47.476;11.990;2022-08-19T10:16:31;4.28;;;3.88;;
27560;SDS011;15003;47.476;11.990;2022-08-19T10:18:57;3.63;;;3.25;;
27560;SDS011;15003;47.476;11.990;2022-08-19T10:21:24;5.55;;;3.60;;
27560;SDS011;15003;47.476;11.990;2022-08-19T10:23:54;3.35;;;3.05;;
27560;SDS011;15003;47.476;11.990;2022-08-19T10:26:25;4.65;;;3.28;;
27560;SDS011;15003;47.476;11.990;2022-08-19T10:28:54;4.07;;;3.67;;
27560;SDS011;15003;47.476;11.990;2022-08-19T10:31:23;3.55;;;3.25;;
27560;SDS011;15003;47.476;11.990;2022-08-19T10:33:55;4.00;;;3.55;;
27560;SDS011;15003;47.476;11.990;2022-08-19T10:36:22;3.45;;;3.15;;
27560;SDS011;15003;47.476;11.990;2022-08-19T10:38:58;3.72;;;3.42;;
27560;SDS011;15003;47.476;11.990;2022-08-19T10:41:29;3.55;;;3.17;;
27560;SDS011;15003;47.476;11.990;2022-08-19T10:43:58;5.00;;;3.22;;
27560;SDS011;15003;47.476;11.990;2022-08-19T10:46:30;4.70;;;3.30;;
27560;SDS011;15003;47.476;11.990;2022-08-19T10:49:02;3.40;;;2.60;;
27560;SDS011;15003;47.476;11.990;2022-08-19T10:51:30;3.05;;;2.75;;
27560;SDS011;15003;47.476;11.990;2022-08-19T10:53:57;3.00;;;2.72;;
27560;SDS011;15003;47.476;11.990;2022-08-19T10:56:24;2.88;;;2.67;;
27560;SDS011;15003;47.476;11.990;2022-08-19T10:58:52;4.38;;;2.50;;
27560;SDS011;15003;47.476;11.990;2022-08-19T11:01:18;2.75;;;2.50;;
27560;SDS011;15003;47.476;11.990;2022-08-19T11:03:43;3.17;;;2.88;;
27560;SDS011;15003;47.476;11.990;2022-08-19T11:06:09;2.83;;;2.63;;
27560;SDS011;15003;47.476;11.990;2022-08-19T11:08:36;2.58;;;2.38;;
27560;SDS011;15003;47.476;11.990;2022-08-19T11:11:03;2.60;;;2.30;;
27560;SDS011;15003;47.476;11.990;2022-08-19T11:13:32;2.38;;;2.20;;
27560;SDS011;15003;47.476;11.990;2022-08-19T11:18:37;2.53;;;2.33;;
27560;SDS011;15003;47.476;11.990;2022-08-19T11:21:17;2.70;;;2.50;;
27560;SDS011;15003;47.476;11.990;2022-08-19T11:23:55;2.60;;;2.40;;
27560;SDS011;15003;47.476;11.990;2022-08-19T11:26:24;2.50;;;2.30;;
27560;SDS011;15003;47.476;11.990;2022-08-19T11:28:50;2.83;;;2.63;;
27560;SDS011;15003;47.476;11.990;2022-08-19T11:31:18;2.47;;;2.28;;
27560;SDS011;15003;47.476;11.990;2022-08-19T11:33:46;3.13;;;2.50;;
27560;SDS011;15003;47.476;11.990;2022-08-19T11:36:12;2.35;;;2.15;;
27560;SDS011;15003;47.476;11.990;2022-08-19T11:38:38;2.38;;;2.17;;
27560;SDS011;15003;47.476;11.990;2022-08-19T11:41:05;3.00;;;2.40;;
27560;SDS011;15003;47.476;11.990;2022-08-19T11:43:32;2.92;;;2.40;;
27560;SDS011;15003;47.476;11.990;2022-08-19T11:45:59;2.63;;;2.42;;
27560;SDS011;15003;47.476;11.990;2022-08-19T11:48:39;2.85;;;2.42;;
27560;SDS011;15003;47.476;11.990;2022-08-19T11:51:07;3.38;;;2.65;;
27560;SDS011;15003;47.476;11.990;2022-08-19T11:53:40;2.72;;;2.53;;
27560;SDS011;15003;47.476;11.990;2022-08-19T11:56:06;2.75;;;2.50;;
27560;SDS011;15003;47.476;11.990;2022-08-19T11:58:34;2.03;;;1.85;;
27560;SDS011;15003;47.476;11.990;2022-08-19T12:01:00;2.15;;;2.05;;
27560;SDS011;15003;47.476;11.990;2022-08-19T12:03:31;2.60;;;2.40;;
27560;SDS011;15003;47.476;11.990;2022-08-19T12:05:57;2.40;;;2.20;;
27560;SDS011;15003;47.476;11.990;2022-08-19T12:08:22;2.70;;;2.50;;
27560;SDS011;15003;47.476;11.990;2022-08-19T12:10:48;2.25;;;2.05;;
27560;SDS011;15003;47.476;11.990;2022-08-19T12:13:14;3.33;;;2.60;;
27560;SDS011;15003;47.476;11.990;2022-08-19T12:15:40;3.08;;;2.33;;
27560;SDS011;15003;47.476;11.990;2022-08-19T12:18:06;2.78;;;2.58;;
27560;SDS011;15003;47.476;11.990;2022-08-19T12:20:37;2.65;;;2.42;;
27560;SDS011;15003;47.476;11.990;2022-08-19T12:23:05;2.75;;;2.53;;
27560;SDS011;15003;47.476;11.990;2022-08-19T12:25:33;3.83;;;2.55;;
27560;SDS011;15003;47.476;11.990;2022-08-19T12:27:58;2.63;;;2.42;;
27560;SDS011;15003;47.476;11.990;2022-08-19T12:30:24;2.60;;;2.40;;
27560;SDS011;15003;47.476;11.990;2022-08-19T12:32:50;2.50;;;2.30;;
27560;SDS011;15003;47.476;11.990;2022-08-19T12:35:17;2.38;;;2.17;;
27560;SDS011;15003;47.476;11.990;2022-08-19T12:37:43;4.38;;;2.17;;
27560;SDS011;15003;47.476;11.990;2022-08-19T12:40:09;3.42;;;2.33;;
27560;SDS011;15003;47.476;11.990;2022-08-19T12:42:36;2.30;;;2.10;;
27560;SDS011;15003;47.476;11.990;2022-08-19T12:45:03;2.85;;;2.20;;
27560;SDS011;15003;47.476;11.990;2022-08-19T12:47:29;2.40;;;2.20;;
27560;SDS011;15003;47.476;11.990;2022-08-19T12:49:55;2.15;;;1.95;;
27560;SDS011;15003;47.476;11.990;2022-08-19T12:52:21;2.05;;;1.90;;
27560;SDS011;15003;47.476;11.990;2022-08-19T12:54:49;2.20;;;2.00;;
27560;SDS011;15003;47.476;11.990;2022-08-19T12:57:16;3.42;;;2.35;;
27560;SDS011;15003;47.476;11.990;2022-08-19T12:59:42;2.25;;;2.05;;
27560;SDS011;15003;47.476;11.990;2022-08-19T13:02:11;2.47;;;2.28;;
27560;SDS011;15003;47.476;11.990;2022-08-19T13:04:37;2.50;;;2.30;;
27560;SDS011;15003;47.476;11.990;2022-08-19T13:07:03;2.40;;;2.05;;
27560;SDS011;15003;47.476;11.990;2022-08-19T13:09:28;4.28;;;2.45;;
27560;SDS011;15003;47.476;11.990;2022-08-19T13:11:54;3.20;;;2.50;;
27560;SDS011;15003;47.476;11.990;2022-08-19T13:14:20;4.13;;;2.50;;
27560;SDS011;15003;47.476;11.990;2022-08-19T13:16:46;2.92;;;2.60;;
27560;SDS011;15003;47.476;11.990;2022-08-19T13:19:11;3.97;;;2.30;;
27560;SDS011;15003;47.476;11.990;2022-08-19T13:21:37;2.10;;;2.00;;
27560;SDS011;15003;47.476;11.990;2022-08-19T13:24:03;2.50;;;2.30;;
27560;SDS011;15003;47.476;11.990;2022-08-19T13:26:29;2.67;;;2.47;;
27560;SDS011;15003;47.476;11.990;2022-08-19T13:28:55;2.33;;;2.13;;
27560;SDS011;15003;47.476;11.990;2022-08-19T13:31:22;2.30;;;2.10;;
27560;SDS011;15003;47.476;11.990;2022-08-19T13:33:50;2.20;;;2.00;;
27560;SDS011;15003;47.476;11.990;2022-08-19T13:36:16;2.88;;;2.60;;
27560;SDS011;15003;47.476;11.990;2022-08-19T13:38:41;2.60;;;2.38;;
27560;SDS011;15003;47.476;11.990;2022-08-19T13:41:07;2.00;;;1.80;;
27560;SDS011;15003;47.476;11.990;2022-08-19T13:43:33;2.30;;;2.10;;
27560;SDS011;15003;47.476;11.990;2022-08-19T13:45:58;1.92;;;1.60;;
27560;SDS011;15003;47.476;11.990;2022-08-19T13:48:25;2.15;;;1.95;;
27560;SDS011;15003;47.476;11.990;2022-08-19T13:50:50;5.18;;;1.88;;
27560;SDS011;15003;47.476;11.990;2022-08-19T13:53:16;4.68;;;1.90;;
27560;SDS011;15003;47.476;11.990;2022-08-19T13:55:43;4.68;;;1.30;;
27560;SDS011;15003;47.476;11.990;2022-08-19T13:58:10;3.05;;;1.25;;
27560;SDS011;15003;47.476;11.990;2022-08-19T14:00:39;1.40;;;1.05;;
27560;SDS011;15003;47.476;11.990;2022-08-19T14:03:07;5.50;;;1.92;;
27560;SDS011;15003;47.476;11.990;2022-08-19T14:05:33;5.07;;;1.63;;
27560;SDS011;15003;47.476;11.990;2022-08-19T14:07:59;6.35;;;1.42;;
27560;SDS011;15003;47.476;11.990;2022-08-19T14:10:25;4.15;;;1.40;;
27560;SDS011;15003;47.476;11.990;2022-08-19T14:12:56;4.60;;;1.60;;
27560;SDS011;15003;47.476;11.990;2022-08-19T14:15:26;3.85;;;1.70;;
27560;SDS011;15003;47.476;11.990;2022-08-19T14:17:52;4.38;;;1.80;;
27560;SDS011;15003;47.476;11.990;2022-08-19T14:20:18;4.30;;;1.88;;
27560;SDS011;15003;47.476;11.990;2022-08-19T14:22:45;4.97;;;1.50;;
27560;SDS011;15003;47.476;11.990;2022-08-19T14:25:16;2.78;;;1.30;;
27560;SDS011;15003;47.476;11.990;2022-08-19T14:27:45;2.28;;;1.20;;
27560;SDS011;15003;47.476;11.990;2022-08-19T14:30:12;2.17;;;1.50;;
27560;SDS011;15003;47.476;11.990;2022-08-19T14:32:48;2.67;;;1.23;;
27560;SDS011;15003;47.476;11.990;2022-08-19T14:35:14;2.13;;;1.38;;
27560;SDS011;15003;47.476;11.990;2022-08-19T14:37:41;2.15;;;1.20;;
27560;SDS011;15003;47.476;11.990;2022-08-19T14:40:08;2.25;;;1.25;;
27560;SDS011;15003;47.476;11.990;2022-08-19T14:42:34;1.88;;;1.13;;
27560;SDS011;15003;47.476;11.990;2022-08-19T14:45:00;2.92;;;1.30;;
27560;SDS011;15003;47.476;11.990;2022-08-19T14:47:27;1.85;;;1.30;;
27560;SDS011;15003;47.476;11.990;2022-08-19T14:49:53;2.13;;;1.30;;
27560;SDS011;15003;47.476;11.990;2022-08-19T14:52:19;2.78;;;1.20;;
27560;SDS011;15003;47.476;11.990;2022-08-19T14:54:45;2.03;;;1.42;;